createdAt,value
2023-03-07T00:00:46.493Z,98.40
2023-03-07T00:03:15.328Z,98.50
2023-03-07T00:05:42.742Z,98.50
2023-03-07T00:08:10.604Z,98.50
2023-03-07T00:10:37.654Z,98.40
2023-03-07T00:13:06.217Z,98.70
2023-03-07T00:15:33.183Z,98.50
2023-03-07T00:18:00.222Z,98.50
2023-03-07T00:20:27.258Z,98.50
2023-03-07T00:22:54.410Z,98.50
2023-03-07T00:25:21.584Z,98.40
2023-03-07T00:27:48.569Z,98.50
2023-03-07T00:30:16.101Z,98.50
2023-03-07T00:32:49.640Z,98.50
2023-03-07T00:35:16.817Z,98.60
2023-03-07T00:37:43.881Z,98.50
2023-03-07T00:40:11.654Z,98.50
2023-03-07T00:42:39.080Z,98.80
2023-03-07T00:45:06.636Z,98.60
2023-03-07T00:47:33.607Z,98.50
2023-03-07T00:50:00.833Z,98.50
2023-03-07T00:52:28.355Z,98.50
2023-03-07T00:54:55.572Z,98.50
2023-03-07T00:57:23.001Z,98.50
2023-03-07T00:59:50.133Z,98.50
2023-03-07T01:02:17.144Z,98.50
2023-03-07T01:04:46.840Z,98.50
2023-03-07T01:07:13.991Z,98.50
2023-03-07T01:09:41.301Z,98.50
2023-03-07T01:12:08.940Z,98.50
2023-03-07T01:14:35.963Z,98.40
2023-03-07T01:17:03.216Z,98.50
2023-03-07T01:19:30.934Z,98.40
2023-03-07T01:22:01.221Z,98.40
2023-03-07T01:24:31.029Z,98.40
2023-03-07T01:27:01.244Z,98.40
2023-03-07T01:29:28.501Z,98.40
2023-03-07T01:31:55.639Z,98.40
2023-03-07T01:34:23.478Z,98.40
2023-03-07T01:36:52.277Z,98.40
2023-03-07T01:39:19.379Z,98.40
2023-03-07T01:41:52.736Z,98.40
2023-03-07T01:44:26.204Z,98.40
2023-03-07T01:47:01.653Z,98.40
2023-03-07T01:49:41.080Z,98.40
2023-03-07T01:52:10.136Z,98.40
2023-03-07T01:54:49.150Z,98.40
2023-03-07T01:57:21.881Z,98.60
2023-03-07T01:59:54.322Z,98.30
2023-03-07T02:02:22.907Z,98.30
2023-03-07T02:05:17.621Z,98.30
2023-03-07T02:07:49.088Z,98.30
2023-03-07T02:10:21.998Z,98.30
2023-03-07T02:12:50.569Z,98.30
2023-03-07T02:15:17.938Z,98.60
2023-03-07T02:17:45.620Z,98.40
2023-03-07T02:20:33.247Z,98.40
2023-03-07T02:23:01.254Z,98.40
2023-03-07T02:25:32.206Z,98.50
2023-03-07T02:28:04.633Z,98.50
2023-03-07T02:30:33.270Z,98.50
2023-03-07T02:33:00.419Z,98.60
2023-03-07T02:35:27.806Z,98.60
2023-03-07T02:38:03.386Z,98.70
2023-03-07T02:40:31.806Z,98.80
2023-03-07T02:43:09.621Z,98.80
2023-03-07T02:45:39.059Z,98.80
2023-03-07T02:48:06.504Z,98.90
2023-03-07T02:50:35.125Z,98.90
2023-03-07T02:53:02.699Z,98.90
2023-03-07T02:55:29.751Z,99.00
2023-03-07T02:58:03.972Z,99.00
2023-03-07T03:00:31.056Z,99.00
2023-03-07T03:03:01.395Z,99.00
2023-03-07T03:05:31.297Z,99.00
2023-03-07T03:08:01.190Z,99.00
2023-03-07T03:10:30.281Z,99.10
2023-03-07T03:13:08.670Z,99.10
2023-03-07T03:15:36.011Z,99.10
2023-03-07T03:18:03.156Z,99.10
2023-03-07T03:20:30.810Z,99.10
2023-03-07T03:22:57.830Z,99.10
2023-03-07T03:25:27.256Z,99.10
2023-03-07T03:27:54.830Z,99.10
2023-03-07T03:30:22.123Z,99.10
2023-03-07T03:32:49.213Z,99.10
2023-03-07T03:35:18.998Z,99.10
2023-03-07T03:37:47.797Z,99.10
2023-03-07T03:40:17.241Z,99.10
2023-03-07T03:42:45.542Z,99.10
2023-03-07T03:45:17.052Z,99.10
2023-03-07T03:47:44.088Z,99.00
2023-03-07T03:50:11.714Z,99.00
2023-03-07T03:52:39.879Z,99.00
2023-03-07T03:55:07.378Z,99.00
2023-03-07T03:57:35.218Z,99.00
2023-03-07T04:00:04.977Z,98.90
2023-03-07T04:02:39.725Z,98.90
2023-03-07T04:05:10.582Z,98.90
2023-03-07T04:07:37.684Z,98.90
2023-03-07T04:10:05.290Z,98.90
2023-03-07T04:12:33.269Z,98.90
2023-03-07T04:15:00.385Z,98.90
2023-03-07T04:17:27.984Z,98.80
2023-03-07T04:19:54.970Z,98.80
2023-03-07T04:22:22.051Z,98.80
2023-03-07T04:24:49.170Z,98.80
2023-03-07T04:27:17.748Z,98.80
2023-03-07T04:29:45.283Z,98.80
2023-03-07T04:32:16.724Z,98.80
2023-03-07T04:34:46.562Z,98.80
2023-03-07T04:37:13.682Z,98.80
2023-03-07T04:39:40.748Z,98.80
2023-03-07T04:42:09.482Z,98.90
2023-03-07T04:44:37.296Z,98.90
2023-03-07T04:47:04.456Z,98.90
2023-03-07T04:49:34.741Z,98.90
2023-03-07T04:52:03.604Z,98.90
2023-03-07T04:54:30.895Z,98.90
2023-03-07T04:57:01.020Z,98.90
2023-03-07T04:59:28.242Z,98.90
2023-03-07T05:01:55.521Z,99.10
2023-03-07T05:04:22.738Z,98.90
2023-03-07T05:06:50.003Z,98.90
2023-03-07T05:09:17.594Z,98.90
2023-03-07T05:11:45.258Z,98.90
2023-03-07T05:14:12.973Z,99.00
2023-03-07T05:16:40.023Z,99.00
2023-03-07T05:19:07.373Z,99.00
2023-03-07T05:21:34.427Z,99.00
2023-03-07T05:24:01.998Z,99.00
2023-03-07T05:26:31.260Z,99.00
2023-03-07T05:28:59.649Z,99.00
2023-03-07T05:31:26.902Z,99.00
2023-03-07T05:33:54.466Z,99.00
2023-03-07T05:36:21.476Z,99.00
2023-03-07T05:38:48.558Z,99.00
2023-03-07T05:41:16.208Z,99.20
2023-03-07T05:43:44.404Z,99.00
2023-03-07T05:46:11.921Z,99.00
2023-03-07T05:48:39.039Z,99.00
2023-03-07T05:51:06.335Z,99.00
2023-03-07T05:53:33.550Z,99.00
2023-03-07T05:56:01.136Z,99.10
2023-03-07T05:58:31.817Z,99.10
2023-03-07T06:01:03.883Z,99.10
2023-03-07T06:03:32.486Z,99.00
2023-03-07T06:05:59.687Z,99.00
2023-03-07T06:08:26.664Z,99.30
2023-03-07T06:10:54.927Z,99.10
2023-03-07T06:13:25.040Z,99.10
2023-03-07T06:15:55.485Z,99.10
2023-03-07T06:18:25.397Z,99.20
2023-03-07T06:21:03.966Z,99.20
2023-03-07T06:23:36.952Z,99.20
2023-03-07T06:26:12.672Z,99.30
2023-03-07T06:28:42.667Z,99.10
2023-03-07T06:31:13.829Z,99.10
2023-03-07T06:33:41.891Z,99.10
2023-03-07T06:36:12.988Z,99.10
2023-03-07T06:38:42.790Z,99.30
2023-03-07T06:41:10.731Z,99.40
2023-03-07T06:43:38.344Z,99.40
2023-03-07T06:46:05.873Z,99.50
2023-03-07T06:48:37.129Z,99.60
2023-03-07T06:51:08.034Z,99.60
2023-03-07T06:53:37.436Z,99.60
2023-03-07T06:56:05.261Z,99.60
2023-03-07T06:58:34.155Z,99.60
2023-03-07T07:01:01.707Z,99.50
2023-03-07T07:03:29.895Z,99.50
2023-03-07T07:05:57.284Z,99.50
2023-03-07T07:08:28.036Z,99.40
2023-03-07T07:11:00.893Z,99.30
2023-03-07T07:13:29.441Z,99.40
2023-03-07T07:15:56.740Z,99.40
2023-03-07T07:18:25.054Z,99.50
2023-03-07T07:20:57.859Z,99.50
2023-03-07T07:23:29.291Z,99.40
2023-03-07T07:25:56.690Z,99.50
2023-03-07T07:28:23.777Z,99.40
2023-03-07T07:30:51.232Z,99.40
2023-03-07T07:33:18.977Z,99.30
2023-03-07T07:35:49.414Z,99.30
2023-03-07T07:38:17.669Z,99.30
2023-03-07T07:40:45.160Z,99.20
2023-03-07T07:43:17.766Z,99.30
2023-03-07T07:45:56.075Z,99.30
2023-03-07T07:48:23.382Z,99.20
2023-03-07T07:50:50.493Z,99.40
2023-03-07T07:53:17.934Z,99.40
2023-03-07T07:55:46.247Z,99.30
2023-03-07T07:58:13.336Z,99.30
2023-03-07T08:00:40.537Z,99.10
2023-03-07T08:03:07.607Z,99.10
2023-03-07T08:05:34.615Z,99.20
2023-03-07T08:08:01.491Z,99.10
2023-03-07T08:10:28.386Z,99.10
2023-03-07T08:12:55.411Z,98.90
2023-03-07T08:15:22.706Z,98.90
2023-03-07T08:17:53.573Z,98.90
2023-03-07T08:20:22.513Z,99.10
2023-03-07T08:22:50.687Z,99.30
2023-03-07T08:25:21.805Z,99.20
2023-03-07T08:27:53.166Z,99.10
2023-03-07T08:30:30.432Z,99.00
2023-03-07T08:33:00.547Z,99.00
2023-03-07T08:35:28.913Z,98.90
2023-03-07T08:38:02.020Z,98.90
2023-03-07T08:40:31.018Z,98.90
2023-03-07T08:42:59.610Z,98.80
2023-03-07T08:45:26.968Z,98.80
2023-03-07T08:47:55.244Z,98.90
2023-03-07T08:50:24.375Z,98.90
2023-03-07T08:52:51.753Z,98.80
2023-03-07T08:55:19.084Z,98.80
2023-03-07T08:57:47.530Z,98.80
2023-03-07T09:00:15.228Z,98.80
2023-03-07T09:02:42.574Z,98.70
2023-03-07T09:05:09.931Z,98.70
2023-03-07T09:07:36.915Z,98.70
2023-03-07T09:10:05.990Z,98.70
2023-03-07T09:12:36.263Z,98.70
2023-03-07T09:15:03.362Z,98.80
2023-03-07T09:17:30.545Z,98.70
2023-03-07T09:20:03.087Z,98.60
2023-03-07T09:22:30.358Z,98.80
2023-03-07T09:24:59.880Z,98.80
2023-03-07T09:27:29.259Z,98.70
2023-03-07T09:29:56.258Z,98.60
2023-03-07T09:32:23.693Z,98.60
2023-03-07T09:34:52.959Z,98.60
2023-03-07T09:37:55.589Z,98.60
2023-03-07T09:40:30.873Z,98.60
2023-03-07T09:43:24.273Z,98.60
2023-03-07T09:47:00.911Z,98.70
2023-03-07T09:49:53.066Z,98.60
2023-03-07T09:52:24.823Z,98.50
2023-03-07T09:55:19.324Z,98.50
2023-03-07T09:57:56.583Z,98.50
2023-03-07T10:00:41.380Z,98.60
2023-03-07T10:03:34.174Z,98.50
2023-03-07T10:06:12.890Z,98.50
2023-03-07T10:08:40.071Z,98.60
2023-03-07T10:11:23.321Z,98.60
2023-03-07T10:14:00.112Z,98.60
2023-03-07T10:16:41.405Z,98.60
2023-03-07T10:19:33.515Z,98.70
2023-03-07T10:22:08.415Z,98.60
2023-03-07T10:24:55.271Z,98.60
2023-03-07T10:27:28.332Z,98.70
2023-03-07T10:30:01.383Z,98.60
2023-03-07T10:32:43.735Z,98.50
2023-03-07T10:35:19.571Z,98.60
2023-03-07T10:37:55.400Z,98.60
2023-03-07T10:40:29.405Z,98.60
2023-03-07T10:43:02.497Z,98.50
2023-03-07T10:45:32.361Z,98.50
2023-03-07T10:48:07.915Z,98.40
2023-03-07T10:50:56.711Z,98.40
2023-03-07T10:53:29.049Z,98.40
2023-03-07T10:56:09.563Z,98.50
2023-03-07T10:58:36.605Z,98.60
2023-03-07T11:01:03.727Z,98.50
2023-03-07T11:03:52.096Z,98.40
2023-03-07T11:06:40.585Z,98.40
2023-03-07T11:09:21.236Z,98.40
2023-03-07T11:12:06.492Z,98.70
2023-03-07T11:14:51.560Z,98.30
2023-03-07T11:17:24.320Z,98.40
2023-03-07T11:19:56.622Z,98.40
2023-03-07T11:22:38.629Z,98.40
2023-03-07T11:25:26.714Z,98.40
2023-03-07T11:28:00.280Z,98.40
2023-03-07T11:30:36.750Z,98.40
2023-03-07T11:33:19.318Z,98.30
2023-03-07T11:35:48.982Z,98.30
2023-03-07T11:38:36.199Z,98.40
2023-03-07T11:41:11.643Z,98.30
2023-03-07T11:44:08.326Z,98.30
2023-03-07T11:47:09.376Z,98.10
2023-03-07T11:49:56.286Z,98.20
2023-03-07T11:56:24.884Z,98.30
2023-03-07T11:59:36.383Z,98.30
2023-03-07T12:02:15.728Z,98.30
2023-03-07T12:04:46.201Z,98.40
2023-03-07T12:07:31.008Z,98.50
2023-03-07T12:10:39.338Z,98.60
2023-03-07T12:13:25.126Z,98.60
2023-03-07T12:16:19.263Z,98.60
2023-03-07T12:18:56.780Z,98.50
2023-03-07T12:21:48.731Z,98.50
2023-03-07T12:24:28.377Z,98.50
2023-03-07T12:27:04.133Z,98.50
2023-03-07T12:29:38.925Z,98.50
2023-03-07T12:32:25.641Z,98.60
2023-03-07T12:35:11.744Z,98.60
2023-03-07T12:37:50.468Z,98.50
2023-03-07T12:40:31.348Z,98.60
2023-03-07T12:43:07.610Z,98.80
2023-03-07T12:45:47.645Z,98.90
2023-03-07T12:48:47.845Z,98.90
2023-03-07T12:51:51.952Z,98.90
2023-03-07T12:54:47.750Z,99.00
2023-03-07T12:57:51.293Z,99.10
2023-03-07T13:00:23.163Z,98.90
2023-03-07T13:02:59.719Z,98.90
2023-03-07T13:05:29.978Z,98.70
2023-03-07T13:07:57.796Z,98.70
2023-03-07T13:10:25.907Z,98.90
2023-03-07T13:12:53.628Z,98.90
2023-03-07T13:15:23.481Z,98.80
2023-03-07T13:17:50.724Z,98.80
2023-03-07T13:20:30.968Z,98.70
2023-03-07T13:23:01.118Z,98.70
2023-03-07T13:25:45.241Z,98.60
2023-03-07T13:28:36.070Z,98.60
2023-03-07T13:31:21.449Z,98.50
2023-03-07T13:33:48.898Z,98.50
2023-03-07T13:36:59.852Z,98.50
2023-03-07T13:40:16.435Z,98.50
2023-03-07T13:42:56.013Z,98.50
2023-03-07T13:54:36.004Z,98.30
2023-03-07T13:58:55.273Z,98.10
2023-03-07T14:18:37.316Z,97.60
2023-03-07T14:21:52.337Z,97.40
2023-03-07T14:25:37.411Z,97.10
2023-03-07T14:28:36.715Z,97.40
2023-03-07T14:31:18.731Z,97.50
2023-03-07T14:34:17.443Z,97.50
2023-03-07T14:36:49.362Z,97.50
2023-03-07T14:43:28.770Z,97.60
2023-03-07T14:47:11.727Z,97.70
2023-03-07T14:50:08.693Z,97.60
2023-03-07T14:52:56.221Z,97.80
2023-03-07T14:55:25.719Z,97.80
2023-03-07T14:58:08.013Z,97.80
2023-03-07T15:01:31.530Z,97.90
2023-03-07T15:04:04.410Z,98.20
2023-03-07T15:06:52.952Z,97.80
2023-03-07T15:09:23.555Z,97.80
2023-03-07T15:12:05.395Z,97.90
2023-03-07T15:14:51.542Z,97.90
2023-03-07T15:17:51.442Z,97.80
2023-03-07T15:20:25.076Z,97.80
2023-03-07T15:23:13.968Z,97.70
2023-03-07T15:25:47.608Z,97.80
2023-03-07T15:28:24.217Z,97.90
2023-03-07T15:30:53.747Z,98.10
2023-03-07T15:33:33.654Z,97.90
2023-03-07T15:36:13.433Z,97.80
2023-03-07T15:38:46.448Z,97.90
2023-03-07T15:41:38.966Z,97.90
2023-03-07T15:44:40.696Z,97.70
2023-03-07T15:47:20.081Z,97.80
2023-03-07T15:50:06.079Z,97.80
2023-03-07T15:52:43.837Z,97.80
2023-03-07T15:55:19.768Z,97.80
2023-03-07T15:58:01.582Z,97.80
2023-03-07T16:00:37.870Z,97.80
2023-03-07T16:03:23.970Z,97.80
2023-03-07T16:05:51.793Z,97.90
2023-03-07T16:08:22.120Z,97.90
2023-03-07T16:11:21.778Z,98.00
2023-03-07T16:13:49.303Z,97.90
2023-03-07T16:16:24.309Z,98.00
2023-03-07T16:18:52.350Z,98.00
2023-03-07T16:21:23.347Z,98.00
2023-03-07T16:23:50.932Z,98.10
2023-03-07T16:26:21.776Z,98.10
2023-03-07T16:28:50.278Z,98.10
2023-03-07T16:31:21.055Z,98.00
2023-03-07T16:33:50.857Z,98.10
2023-03-07T16:36:21.050Z,98.10
2023-03-07T16:38:53.853Z,98.10
2023-03-07T16:41:50.970Z,98.20
2023-03-07T16:44:22.213Z,98.20
2023-03-07T16:47:08.306Z,98.20
2023-03-07T16:49:36.259Z,98.20
2023-03-07T16:52:06.513Z,98.20
2023-03-07T16:54:36.596Z,98.20
2023-03-07T16:57:04.261Z,98.30
2023-03-07T16:59:51.270Z,98.30
2023-03-07T17:02:39.954Z,98.30
2023-03-07T17:05:21.398Z,98.40
2023-03-07T17:07:48.951Z,98.30
2023-03-07T17:10:39.892Z,98.30
2023-03-07T17:13:15.150Z,98.30
2023-03-07T17:15:50.144Z,98.30
2023-03-07T17:18:17.634Z,98.30
2023-03-07T17:20:50.497Z,98.30
2023-03-07T17:23:21.981Z,98.30
2023-03-07T17:25:49.105Z,98.40
2023-03-07T17:28:18.608Z,98.40
2023-03-07T17:30:48.146Z,98.40
2023-03-07T17:33:15.795Z,98.40
2023-03-07T17:35:43.225Z,98.40
2023-03-07T17:39:20.917Z,98.40
2023-03-07T17:41:53.204Z,98.50
2023-03-07T17:44:20.746Z,98.50
2023-03-07T17:46:51.094Z,98.40
2023-03-07T17:49:18.753Z,98.40
2023-03-07T17:51:45.892Z,98.40
2023-03-07T17:54:12.964Z,98.40
2023-03-07T17:56:40.827Z,98.40
2023-03-07T17:59:08.031Z,98.40
2023-03-07T18:01:36.464Z,98.40
2023-03-07T18:04:21.131Z,98.50
2023-03-07T18:12:15.421Z,98.60
2023-03-07T18:17:54.155Z,98.50
2023-03-07T18:20:22.308Z,98.60
2023-03-07T18:23:14.944Z,98.60
2023-03-07T18:34:50.512Z,98.60
2023-03-07T18:38:13.444Z,97.60
2023-03-07T18:40:41.193Z,98.20
2023-03-07T18:43:56.985Z,99.00
2023-03-07T18:46:40.873Z,99.40
2023-03-07T18:49:08.171Z,99.50
2023-03-07T18:51:53.256Z,99.50
2023-03-07T18:54:43.860Z,99.50
2023-03-07T18:57:11.010Z,99.60
2023-03-07T18:59:38.241Z,99.60
2023-03-07T19:02:10.150Z,99.70
2023-03-07T19:04:37.376Z,99.80
2023-03-07T19:07:04.709Z,99.80
2023-03-07T19:09:34.228Z,99.90
2023-03-07T19:12:01.379Z,99.90
2023-03-07T19:14:33.224Z,99.90
2023-03-07T19:17:03.532Z,99.90
2023-03-07T19:19:37.935Z,99.90
2023-03-07T19:22:05.938Z,99.90
2023-03-07T19:25:22.762Z,99.90
2023-03-07T19:28:35.937Z,99.90
2023-03-07T19:31:36.219Z,99.90
2023-03-07T19:34:49.088Z,99.90
2023-03-07T19:38:12.349Z,99.90
2023-03-07T19:41:06.471Z,99.90
2023-03-07T19:43:33.982Z,99.90
2023-03-07T19:49:35.002Z,99.90
2023-03-07T19:52:05.677Z,99.90
2023-03-07T19:54:44.201Z,99.90
2023-03-07T19:57:15.166Z,99.90
2023-03-07T20:00:06.729Z,99.90
2023-03-07T20:02:41.366Z,99.90
2023-03-07T20:10:15.528Z,99.90
2023-03-07T20:12:44.178Z,99.90
2023-03-07T20:15:20.880Z,99.90
2023-03-07T20:17:52.695Z,99.90
2023-03-07T20:20:22.950Z,99.90
2023-03-07T20:22:55.569Z,99.90
2023-03-07T20:25:22.845Z,99.90
2023-03-07T20:29:37.022Z,99.90
2023-03-07T20:32:12.865Z,99.90
2023-03-07T20:39:05.279Z,99.90
2023-03-07T20:43:25.896Z,99.90
2023-03-07T20:49:57.004Z,99.90
2023-03-07T20:52:26.056Z,99.90
2023-03-07T20:54:53.191Z,99.90
2023-03-07T20:57:20.268Z,99.90
2023-03-07T20:59:48.853Z,99.90
2023-03-07T21:02:16.016Z,99.90
2023-03-07T21:05:31.957Z,99.90
2023-03-07T21:08:33.416Z,99.90
2023-03-07T21:11:26.679Z,99.90
2023-03-07T21:14:29.592Z,99.90
2023-03-07T21:17:02.649Z,99.90
2023-03-07T21:19:29.810Z,99.90
2023-03-07T21:21:59.072Z,99.90
2023-03-07T21:24:26.355Z,99.90
2023-03-07T21:26:53.956Z,99.90
2023-03-07T21:29:28.948Z,99.90
2023-03-07T21:32:03.324Z,99.90
2023-03-07T21:34:41.838Z,99.90
2023-03-07T21:37:30.493Z,99.90
2023-03-07T21:39:57.787Z,99.90
2023-03-07T21:42:27.694Z,99.90
2023-03-07T21:44:59.921Z,99.90
2023-03-07T21:47:29.800Z,99.90
2023-03-07T21:53:35.893Z,99.90
2023-03-07T21:56:12.679Z,99.90
2023-03-07T21:59:30.680Z,99.90
2023-03-07T22:02:01.210Z,99.90
2023-03-07T22:04:44.993Z,99.90
2023-03-07T22:07:14.333Z,99.90
2023-03-07T22:09:41.467Z,99.90
2023-03-07T22:12:08.668Z,99.90
2023-03-07T22:14:35.714Z,99.90
2023-03-07T22:17:02.809Z,99.90
2023-03-07T22:19:30.084Z,99.90
2023-03-07T22:22:00.362Z,99.90
2023-03-07T22:24:36.602Z,99.90
2023-03-07T22:27:12.354Z,99.90
2023-03-07T22:34:09.942Z,99.90
2023-03-07T22:38:22.392Z,99.90
2023-03-07T22:40:14.737Z,99.90
2023-03-07T22:42:52.818Z,99.90
2023-03-07T22:45:22.484Z,99.90
2023-03-07T22:48:42.445Z,99.90
2023-03-07T22:51:19.835Z,99.90
2023-03-07T22:54:06.759Z,99.90
2023-03-07T22:57:15.499Z,99.90
2023-03-07T22:59:52.631Z,99.90
2023-03-07T23:02:20.110Z,99.90
2023-03-07T23:05:33.800Z,99.90
2023-03-07T23:08:54.126Z,99.90
2023-03-07T23:11:27.901Z,99.90
2023-03-07T23:14:04.724Z,99.90
2023-03-07T23:16:34.023Z,99.90
2023-03-07T23:19:01.387Z,99.90
2023-03-07T23:21:30.611Z,99.90
2023-03-07T23:24:11.943Z,99.90
2023-03-07T23:26:45.695Z,99.90
2023-03-07T23:29:24.270Z,99.90
2023-03-07T23:31:51.627Z,99.90
2023-03-07T23:34:21.810Z,99.90
2023-03-07T23:36:49.266Z,99.90
2023-03-07T23:39:40.777Z,99.90
2023-03-07T23:42:28.168Z,99.90
2023-03-07T23:45:04.838Z,99.90
2023-03-07T23:47:37.696Z,99.90
2023-03-07T23:50:12.801Z,99.90
2023-03-07T23:52:45.876Z,99.90
2023-03-07T23:55:35.362Z,99.90
2023-03-07T23:58:08.941Z,99.90
